Time;durP1;ratioP1;P1;durP2;ratioP2;P2;SDS_P1;SDS_P2;PMS_P1;PMS_P2;Temp;Humidity;BMP_temperature;BMP_pressure;BME280_temperature;BME280_humidity;BME280_pressure;Samples;Min_cycle;Max_cycle;Signal;HPM_P1;HPM_P2
2023/02/25 00:01:58;;;;;;;25.58;23.35;;;8.90;99.90;;;;;;4191873;28;20294;-91
2023/02/25 00:04:27;;;;;;;27.08;24.17;;;8.90;99.90;;;;;;4199646;28;20067;-91
2023/02/25 00:06:47;;;;;;;20.90;19.10;;;8.90;99.90;;;;;;4187887;28;20140;-89
2023/02/25 00:09:10;;;;;;;22.95;20.85;;;8.90;99.90;;;;;;4184832;28;20048;-90
2023/02/25 00:11:31;;;;;;;21.80;19.83;;;8.90;99.90;;;;;;4186321;28;20075;-90
2023/02/25 00:13:51;;;;;;;25.05;22.65;;;9.00;99.90;;;;;;4194957;28;20068;-90
2023/02/25 00:16:12;;;;;;;20.88;19.08;;;8.90;99.90;;;;;;4186130;28;20083;-90
2023/02/25 00:18:32;;;;;;;21.65;19.75;;;8.90;99.90;;;;;;4191558;28;20089;-91
2023/02/25 00:20:54;;;;;;;21.85;19.92;;;8.90;99.90;;;;;;4189894;28;20052;-90
2023/02/25 00:23:14;;;;;;;22.92;20.45;;;8.90;99.90;;;;;;4189022;28;20398;-90
2023/02/25 00:25:34;;;;;;;19.63;17.88;;;9.00;99.90;;;;;;4188299;28;20363;-91
2023/02/25 00:27:54;;;;;;;21.98;19.77;;;8.90;99.90;;;;;;4190779;28;20239;-90
2023/02/25 00:30:14;;;;;;;22.58;20.50;;;9.00;99.90;;;;;;4188232;28;20049;-90
2023/02/25 00:32:34;;;;;;;20.90;19.30;;;9.00;99.90;;;;;;4188695;28;20085;-90
2023/02/25 00:34:56;;;;;;;21.92;19.67;;;9.00;99.90;;;;;;4189686;28;20056;-90
2023/02/25 00:37:16;;;;;;;23.70;21.67;;;9.10;99.90;;;;;;4195682;28;20048;-90
2023/02/25 00:39:42;;;;;;;21.48;19.40;;;9.00;99.90;;;;;;4186378;28;20048;-90
2023/02/25 00:42:03;;;;;;;25.23;22.67;;;9.00;99.90;;;;;;4196051;28;20051;-90
2023/02/25 00:44:23;;;;;;;25.30;22.88;;;9.00;99.90;;;;;;4195087;28;20319;-91
2023/02/25 00:46:43;;;;;;;24.20;21.85;;;9.00;99.90;;;;;;4194767;28;20354;-90
2023/02/25 00:49:03;;;;;;;27.95;25.30;;;9.00;99.90;;;;;;4194782;28;20362;-90
2023/02/25 00:51:28;;;;;;;28.23;25.27;;;8.90;99.90;;;;;;4191902;28;20079;-91
2023/02/25 00:53:49;;;;;;;26.92;24.25;;;8.90;99.90;;;;;;4195882;28;20044;-90
2023/02/25 00:56:16;;;;;;;28.98;25.85;;;8.90;99.90;;;;;;4191029;28;20051;-91
2023/02/25 00:58:37;;;;;;;30.05;27.00;;;8.80;99.90;;;;;;4177834;28;20068;-91
2023/02/25 01:00:57;;;;;;;31.35;28.25;;;8.80;99.90;;;;;;4182695;28;20072;-91
2023/02/25 01:03:17;;;;;;;36.97;31.27;;;8.70;99.90;;;;;;4190642;28;20052;-91
2023/02/25 01:05:40;;;;;;;35.50;29.90;;;8.70;99.90;;;;;;4185410;28;20053;-91
2023/02/25 01:08:00;;;;;;;35.33;29.10;;;8.70;99.90;;;;;;4187200;28;20106;-90
2023/02/25 01:10:21;;;;;;;31.58;28.30;;;8.70;99.90;;;;;;4192653;28;20055;-91
2023/02/25 01:12:41;;;;;;;31.98;27.77;;;8.70;99.90;;;;;;4194039;28;20051;-91
2023/02/25 01:15:02;;;;;;;32.15;27.33;;;8.70;99.90;;;;;;4191203;28;20087;-91
2023/02/25 01:17:22;;;;;;;30.25;26.98;;;8.70;99.90;;;;;;4193948;28;20091;-91
2023/02/25 01:19:42;;;;;;;31.25;28.13;;;8.70;99.90;;;;;;4192407;28;20227;-91
2023/02/25 01:22:02;;;;;;;29.02;26.05;;;8.70;99.90;;;;;;4193532;28;20237;-90
2023/02/25 01:24:23;;;;;;;30.05;26.60;;;8.60;99.90;;;;;;4193435;28;20359;-91
2023/02/25 01:26:46;;;;;;;30.05;26.50;;;8.70;99.90;;;;;;4193307;28;20091;-90
2023/02/25 01:29:11;;;;;;;29.35;26.33;;;8.70;99.90;;;;;;4196179;28;20052;-91
2023/02/25 01:31:31;;;;;;;31.15;25.73;;;8.70;99.90;;;;;;4191596;28;20056;-90
2023/02/25 01:33:52;;;;;;;27.73;25.00;;;8.70;99.90;;;;;;4191681;28;20295;-90
2023/02/25 01:36:12;;;;;;;29.55;26.67;;;8.70;99.90;;;;;;4193059;28;20051;-91
2023/02/25 01:38:33;;;;;;;27.48;24.65;;;8.70;99.90;;;;;;4190254;28;20063;-91
2023/02/25 01:40:57;;;;;;;31.20;24.05;;;8.70;99.90;;;;;;4186527;28;20086;-91
2023/02/25 01:43:17;;;;;;;27.88;24.90;;;8.70;99.90;;;;;;4189654;28;20370;-89
2023/02/25 01:45:44;;;;;;;26.92;24.25;;;8.70;99.90;;;;;;4180337;28;20076;-89
2023/02/25 01:48:26;;;;;;;27.70;24.85;;;8.70;99.90;;;;;;4192548;28;20059;-91
2023/02/25 01:50:58;;;;;;;27.80;24.65;;;8.70;99.90;;;;;;4195081;28;20394;-90
2023/02/25 01:53:27;;;;;;;26.83;23.90;;;8.70;99.90;;;;;;4190203;28;20052;-91
2023/02/25 01:55:48;;;;;;;28.63;25.77;;;8.70;99.90;;;;;;4192409;28;20078;-90
2023/02/25 01:58:10;;;;;;;29.33;24.98;;;8.60;99.90;;;;;;4198201;28;20047;-90
2023/02/25 02:00:32;;;;;;;30.65;27.38;;;8.70;99.90;;;;;;4192051;28;20058;-91
2023/02/25 02:02:53;;;;;;;26.33;23.83;;;8.70;99.90;;;;;;4190929;28;20385;-90
2023/02/25 02:05:14;;;;;;;30.60;27.48;;;8.60;99.90;;;;;;4198588;28;20055;-91
2023/02/25 02:07:33;;;;;;;28.48;25.50;;;8.60;99.90;;;;;;4192419;28;20063;-90
2023/02/25 02:09:56;;;;;;;33.03;26.10;;;8.60;99.90;;;;;;4192487;28;20236;-91
2023/02/25 02:12:16;;;;;;;29.40;25.05;;;8.60;99.90;;;;;;4192320;28;20060;-90
2023/02/25 02:14:40;;;;;;;27.60;24.98;;;8.60;99.90;;;;;;4192030;28;20087;-90
2023/02/25 02:17:29;;;;;;;33.05;25.75;;;8.60;99.90;;;;;;4186758;28;20385;-90
2023/02/25 02:20:06;;;;;;;28.33;25.30;;;8.60;99.90;;;;;;4188750;28;20051;-91
2023/02/25 02:22:39;;;;;;;30.85;26.27;;;8.60;99.90;;;;;;4187349;28;20075;-91
2023/02/25 02:25:08;;;;;;;30.98;25.02;;;8.60;99.90;;;;;;4176338;28;20362;-90
2023/02/25 02:27:45;;;;;;;29.73;25.05;;;8.60;99.90;;;;;;4189586;28;20060;-91
2023/02/25 02:30:34;;;;;;;28.33;25.25;;;8.50;99.90;;;;;;4182073;28;20052;-89
2023/02/25 02:33:16;;;;;;;26.65;24.13;;;8.50;99.90;;;;;;4188482;28;20056;-90
2023/02/25 02:36:08;;;;;;;27.73;22.05;;;8.50;99.90;;;;;;4184681;28;20120;-92
2023/02/25 02:38:58;;;;;;;29.45;26.30;;;8.50;99.90;;;;;;4173016;28;20108;-91
2023/02/25 02:41:27;;;;;;;26.48;23.45;;;8.50;99.90;;;;;;4189333;28;20101;-92
2023/02/25 02:43:57;;;;;;;25.60;22.80;;;8.50;99.90;;;;;;4187149;28;20099;-91
2023/02/25 02:46:38;;;;;;;25.90;23.13;;;8.50;99.90;;;;;;4189336;28;20059;-91
2023/02/25 02:49:10;;;;;;;23.35;19.92;;;8.50;99.90;;;;;;4193247;28;20394;-91
2023/02/25 02:52:04;;;;;;;17.92;16.13;;;8.60;99.90;;;;;;4186574;28;20094;-91
2023/02/25 02:54:27;;;;;;;17.95;16.35;;;8.80;99.90;;;;;;4191779;28;20052;-91
2023/02/25 02:56:50;;;;;;;18.65;16.88;;;8.80;99.90;;;;;;4206767;28;20102;-90
2023/02/25 02:59:22;;;;;;;18.63;17.38;;;8.90;99.90;;;;;;4186175;28;20064;-91
2023/02/25 03:01:53;;;;;;;18.30;16.90;;;8.90;99.90;;;;;;4191873;28;20044;-90
2023/02/25 03:04:17;;;;;;;19.98;18.35;;;8.90;99.90;;;;;;4190778;28;20067;-89
2023/02/25 03:06:48;;;;;;;19.80;18.25;;;8.80;99.90;;;;;;4185807;28;20382;-90
2023/02/25 03:09:23;;;;;;;20.60;18.65;;;8.80;99.90;;;;;;4184158;28;20419;-91
2023/02/25 03:11:44;;;;;;;21.98;20.27;;;8.70;99.90;;;;;;4193836;28;20436;-90
2023/02/25 03:14:07;;;;;;;19.83;18.25;;;8.70;99.90;;;;;;4191676;28;20075;-90
2023/02/25 03:16:35;;;;;;;;;;;8.70;99.90;;;;;;4190863;28;20078;-91
2023/02/25 03:19:11;;;;;;;20.52;18.73;;;8.70;99.90;;;;;;4186598;28;19939;-90
2023/02/25 03:21:39;;;;;;;18.77;17.20;;;8.70;99.90;;;;;;4183521;28;20095;-90
2023/02/25 03:24:01;;;;;;;19.20;17.75;;;8.80;99.90;;;;;;4181816;28;20259;-92
2023/02/25 03:26:27;;;;;;;15.38;14.15;;;8.90;99.90;;;;;;4194008;28;20092;-91
2023/02/25 03:28:46;;;;;;;17.50;15.90;;;8.90;99.90;;;;;;4180281;28;20095;-90
2023/02/25 03:31:16;;;;;;;16.83;15.38;;;8.90;99.90;;;;;;4181452;28;20091;-90
2023/02/25 03:33:55;;;;;;;16.35;14.98;;;9.00;99.90;;;;;;4197471;28;20078;-90
2023/02/25 03:36:27;;;;;;;15.95;14.65;;;9.00;99.90;;;;;;4197230;28;20224;-91
2023/02/25 03:38:51;;;;;;;16.30;15.02;;;9.00;99.90;;;;;;4200731;28;20055;-91
2023/02/25 03:41:15;;;;;;;18.88;17.23;;;9.10;99.90;;;;;;4192671;28;20120;-91
2023/02/25 03:43:44;;;;;;;15.95;14.80;;;9.10;99.90;;;;;;4188661;28;20052;-91
2023/02/25 03:46:05;;;;;;;15.85;14.80;;;9.10;99.90;;;;;;4204716;28;20097;-90
2023/02/25 03:48:26;;;;;;;17.38;15.55;;;9.10;99.90;;;;;;4194056;28;20052;-90
2023/02/25 03:50:58;;;;;;;19.33;16.13;;;9.10;99.90;;;;;;4193609;28;20108;-90
2023/02/25 03:53:18;;;;;;;15.50;13.90;;;9.10;99.90;;;;;;4195762;28;20067;-90
2023/02/25 03:55:37;;;;;;;15.80;14.38;;;9.10;99.90;;;;;;4188983;28;20070;-90
2023/02/25 03:57:57;;;;;;;14.75;13.77;;;9.10;99.90;;;;;;4193519;28;20378;-91
2023/02/25 04:00:23;;;;;;;18.10;16.33;;;9.10;99.90;;;;;;4192269;28;20071;-89
2023/02/25 04:02:46;;;;;;;16.30;15.00;;;9.10;99.90;;;;;;4198736;28;20100;-90
2023/02/25 04:05:09;;;;;;;16.58;15.52;;;9.10;99.90;;;;;;4202166;28;20111;-90
2023/02/25 04:07:28;;;;;;;18.35;16.67;;;9.10;99.90;;;;;;4190230;28;20059;-91
2023/02/25 04:09:49;;;;;;;17.27;15.88;;;9.10;99.90;;;;;;4190970;28;20130;-91
2023/02/25 04:12:09;;;;;;;17.70;16.10;;;9.10;99.90;;;;;;4200087;28;20064;-90
2023/02/25 04:14:28;;;;;;;17.40;16.10;;;9.10;99.90;;;;;;4183096;28;20043;-91
2023/02/25 04:16:48;;;;;;;17.67;16.05;;;9.10;99.90;;;;;;4194833;28;20155;-92
2023/02/25 04:19:08;;;;;;;15.50;14.38;;;9.10;99.90;;;;;;4186721;28;20048;-90
2023/02/25 04:21:37;;;;;;;18.20;16.63;;;9.00;99.90;;;;;;4186582;28;20069;-91
2023/02/25 04:23:57;;;;;;;16.17;14.63;;;9.10;99.90;;;;;;4193502;28;20059;-92
2023/02/25 04:26:43;;;;;;;16.20;14.98;;;9.00;99.90;;;;;;4193228;28;20067;-91
2023/02/25 04:29:05;;;;;;;17.05;15.75;;;9.00;99.90;;;;;;4193720;28;20048;-91
2023/02/25 04:31:26;;;;;;;15.32;14.27;;;9.00;99.90;;;;;;4193499;28;20108;-90
2023/02/25 04:33:48;;;;;;;15.20;13.88;;;9.00;99.90;;;;;;4195738;28;20328;-91
2023/02/25 04:36:25;;;;;;;15.43;14.38;;;9.10;99.90;;;;;;4192237;28;20823;-92
2023/02/25 04:38:45;;;;;;;16.13;14.05;;;9.10;99.90;;;;;;4195385;28;20107;-90
2023/02/25 04:41:05;;;;;;;15.25;13.75;;;9.10;99.90;;;;;;4197901;28;20072;-92
2023/02/25 04:43:25;;;;;;;15.00;13.63;;;9.10;99.90;;;;;;4200151;28;20405;-89
2023/02/25 04:45:45;;;;;;;17.05;14.93;;;9.10;99.90;;;;;;4192439;28;20136;-91
2023/02/25 04:48:05;;;;;;;15.27;14.20;;;9.10;99.90;;;;;;4199185;28;20052;-91
2023/02/25 04:50:26;;;;;;;16.35;15.20;;;9.10;99.90;;;;;;4187374;28;20279;-92
2023/02/25 04:52:46;;;;;;;16.25;14.68;;;9.10;99.90;;;;;;4189317;28;20055;-91
2023/02/25 04:55:08;;;;;;;16.85;14.23;;;9.10;99.90;;;;;;4188064;28;20051;-91
2023/02/25 04:57:29;;;;;;;14.40;13.10;;;9.10;99.90;;;;;;4193957;28;20074;-91
2023/02/25 04:59:49;;;;;;;15.48;14.13;;;9.10;99.90;;;;;;4177768;28;20052;-92
2023/02/25 05:02:09;;;;;;;17.75;16.30;;;9.10;99.90;;;;;;4192289;28;20048;-92
2023/02/25 05:04:29;;;;;;;17.27;15.65;;;9.10;99.90;;;;;;4196023;28;20075;-91
2023/02/25 05:06:49;;;;;;;19.20;15.55;;;9.10;99.90;;;;;;4195806;28;20051;-92
2023/02/25 05:09:10;;;;;;;16.85;15.40;;;9.10;99.90;;;;;;4198820;28;20058;-91
2023/02/25 05:11:30;;;;;;;16.40;15.30;;;9.10;99.90;;;;;;4190706;28;20055;-90
2023/02/25 05:13:51;;;;;;;15.98;14.77;;;9.10;99.90;;;;;;4190964;28;20059;-90
2023/02/25 05:16:15;;;;;;;17.17;15.50;;;9.10;99.90;;;;;;4181308;28;20071;-90
2023/02/25 05:18:36;;;;;;;16.20;14.93;;;9.00;99.90;;;;;;4193264;28;20244;-91
2023/02/25 05:20:59;;;;;;;15.68;14.45;;;9.10;99.90;;;;;;4186437;28;20048;-93
2023/02/25 05:23:19;;;;;;;16.73;15.13;;;9.10;99.90;;;;;;4192009;28;20393;-91
2023/02/25 05:25:42;;;;;;;16.92;15.35;;;9.10;99.90;;;;;;4193842;28;20044;-92
2023/02/25 05:28:02;;;;;;;15.80;14.63;;;9.10;99.90;;;;;;4187621;28;20053;-91
2023/02/25 05:30:22;;;;;;;16.30;14.73;;;9.10;99.90;;;;;;4178977;28;20096;-91
2023/02/25 05:32:41;;;;;;;14.00;12.95;;;9.00;99.90;;;;;;4194542;28;20244;-91
2023/02/25 05:35:02;;;;;;;16.17;15.02;;;9.00;99.90;;;;;;4193944;28;20045;-90
2023/02/25 05:37:22;;;;;;;17.38;15.75;;;9.00;99.90;;;;;;4193955;28;20067;-92
2023/02/25 05:39:42;;;;;;;16.67;15.25;;;8.90;99.90;;;;;;4197467;28;20114;-91
2023/02/25 05:42:01;;;;;;;15.68;14.02;;;8.90;99.90;;;;;;4199810;28;20051;-90
2023/02/25 05:44:21;;;;;;;16.38;14.85;;;8.90;99.90;;;;;;4191779;28;20097;-92
2023/02/25 05:46:41;;;;;;;17.98;15.60;;;8.90;99.90;;;;;;4191655;28;20373;-92
2023/02/25 05:49:02;;;;;;;17.33;15.73;;;8.90;99.90;;;;;;4188462;28;20047;-91
2023/02/25 05:51:23;;;;;;;17.48;15.00;;;8.90;99.90;;;;;;4186627;28;20282;-92
2023/02/25 05:53:43;;;;;;;16.75;14.93;;;9.00;99.90;;;;;;4184271;28;20064;-91
2023/02/25 05:56:09;;;;;;;14.60;13.32;;;9.00;99.90;;;;;;4183050;28;20078;-92
2023/02/25 05:58:29;;;;;;;17.48;15.77;;;9.10;99.90;;;;;;4181792;28;20060;-92
2023/02/25 06:00:51;;;;;;;17.25;14.23;;;9.00;99.90;;;;;;4183782;28;20079;-93
2023/02/25 06:03:10;;;;;;;19.58;16.80;;;9.10;99.90;;;;;;4188472;28;20037;-92
2023/02/25 06:05:31;;;;;;;18.83;15.63;;;9.20;99.90;;;;;;4182259;28;20247;-92
2023/02/25 06:07:51;;;;;;;18.15;16.17;;;9.20;99.90;;;;;;4185472;28;20076;-92
2023/02/25 06:10:11;;;;;;;16.63;14.93;;;9.10;99.90;;;;;;4192188;28;20398;-92
2023/02/25 06:12:33;;;;;;;15.52;14.30;;;9.00;99.90;;;;;;4189876;28;20070;-91
2023/02/25 06:14:53;;;;;;;16.02;14.45;;;9.00;99.90;;;;;;4194358;28;20103;-92
2023/02/25 06:17:13;;;;;;;16.48;15.30;;;9.00;99.90;;;;;;4193611;28;20044;-92
2023/02/25 06:19:33;;;;;;;17.27;15.52;;;9.00;99.90;;;;;;4194381;28;20055;-92
2023/02/25 06:21:54;;;;;;;17.45;15.77;;;9.00;99.90;;;;;;4189089;28;20055;-92
2023/02/25 06:24:15;;;;;;;16.42;15.07;;;9.00;99.90;;;;;;4197532;28;20051;-91
2023/02/25 06:26:40;;;;;;;18.33;15.15;;;9.00;99.90;;;;;;4196281;28;20275;-91
2023/02/25 06:29:00;;;;;;;16.55;14.77;;;9.00;99.90;;;;;;4195324;28;20052;-92
2023/02/25 06:31:23;;;;;;;15.38;13.88;;;9.00;99.90;;;;;;4182617;28;20048;-93
2023/02/25 06:33:44;;;;;;;;;;;9.00;99.90;;;;;;4196331;28;20051;-93
2023/02/25 06:36:05;;;;;;;17.40;15.60;;;9.10;99.90;;;;;;4192205;28;19959;-92
2023/02/25 06:38:24;;;;;;;20.15;16.17;;;9.10;99.90;;;;;;4184628;28;20072;-92
2023/02/25 06:40:44;;;;;;;19.15;16.05;;;9.20;99.90;;;;;;4190274;28;20091;-93
2023/02/25 06:43:04;;;;;;;23.48;17.55;;;9.20;99.90;;;;;;4178331;28;20136;-93
2023/02/25 06:45:24;;;;;;;17.08;15.48;;;9.20;99.90;;;;;;4186180;28;20078;-92
2023/02/25 06:47:45;;;;;;;18.70;15.70;;;9.20;99.90;;;;;;4179301;28;20371;-91
2023/02/25 06:50:07;;;;;;;17.13;15.45;;;9.20;99.90;;;;;;4188659;28;20072;-92
2023/02/25 06:52:27;;;;;;;17.33;15.25;;;9.20;99.90;;;;;;4183980;28;20044;-92
2023/02/25 06:54:47;;;;;;;16.98;13.63;;;9.20;99.90;;;;;;4195857;28;20342;-93
2023/02/25 06:57:07;;;;;;;20.25;15.20;;;9.20;99.90;;;;;;4192759;28;20091;-93
2023/02/25 06:59:27;;;;;;;16.98;15.15;;;9.20;99.90;;;;;;4195348;28;20078;-93
2023/02/25 07:01:46;;;;;;;16.80;15.20;;;9.30;99.90;;;;;;4195198;28;20080;-92
2023/02/25 07:04:06;;;;;;;22.45;16.15;;;9.40;99.90;;;;;;4193318;28;20052;-93
2023/02/25 07:06:26;;;;;;;17.58;15.75;;;9.40;99.90;;;;;;4204191;28;20079;-92
2023/02/25 07:08:46;;;;;;;25.02;16.55;;;9.50;99.90;;;;;;4195203;28;20379;-89
2023/02/25 07:11:24;;;;;;;19.50;15.57;;;9.50;99.90;;;;;;4198644;28;20083;-89
2023/02/25 07:13:45;;;;;;;16.40;14.93;;;9.40;99.90;;;;;;4182102;28;20052;-89
2023/02/25 07:16:08;;;;;;;17.73;14.40;;;9.30;99.90;;;;;;4183132;28;20056;-89
2023/02/25 07:18:28;;;;;;;15.68;14.00;;;9.30;99.90;;;;;;4192573;28;20411;-89
2023/02/25 07:20:49;;;;;;;18.35;14.32;;;9.20;99.90;;;;;;4184364;28;20100;-89
2023/02/25 07:23:09;;;;;;;19.15;14.20;;;9.30;99.90;;;;;;4195084;28;20056;-89
2023/02/25 07:25:29;;;;;;;15.07;13.73;;;9.20;99.90;;;;;;4191392;28;20087;-89
2023/02/25 07:27:49;;;;;;;14.98;13.25;;;9.20;99.90;;;;;;4176154;28;20048;-89
2023/02/25 07:30:11;;;;;;;15.70;13.77;;;9.20;99.90;;;;;;4181447;28;20049;-89
2023/02/25 07:32:32;;;;;;;17.08;15.57;;;9.10;99.90;;;;;;4195155;28;20083;-89
2023/02/25 07:34:52;;;;;;;15.70;14.27;;;9.10;99.90;;;;;;4192363;28;20036;-89
2023/02/25 07:37:13;;;;;;;15.50;14.10;;;9.00;99.90;;;;;;4194442;28;20091;-89
2023/02/25 07:39:33;;;;;;;16.48;14.88;;;8.90;99.90;;;;;;4195623;28;20048;-89
2023/02/25 07:41:53;;;;;;;16.17;14.70;;;8.90;99.90;;;;;;4183542;28;20104;-89
2023/02/25 07:44:12;;;;;;;16.30;15.15;;;8.90;99.90;;;;;;4184432;28;20075;-89
2023/02/25 07:46:32;;;;;;;16.30;15.15;;;9.00;99.90;;;;;;4200866;28;20048;-89
2023/02/25 07:48:52;;;;;;;17.80;15.38;;;9.00;99.90;;;;;;4191308;28;20043;-89
2023/02/25 07:51:19;;;;;;;17.48;15.70;;;9.10;99.90;;;;;;4187821;28;20051;-89
2023/02/25 07:53:39;;;;;;;17.25;13.77;;;9.10;99.90;;;;;;4194121;28;20051;-89
2023/02/25 07:56:00;;;;;;;15.68;14.07;;;9.20;99.90;;;;;;4198988;28;20044;-89
2023/02/25 07:58:20;;;;;;;18.50;15.43;;;9.20;99.90;;;;;;4189643;28;20371;-89
2023/02/25 08:00:40;;;;;;;20.90;15.25;;;9.30;99.90;;;;;;4194301;28;20052;-89
2023/02/25 08:03:00;;;;;;;17.67;13.93;;;9.40;99.90;;;;;;4187080;28;20052;-89
2023/02/25 08:05:21;;;;;;;20.60;15.35;;;9.50;99.90;;;;;;4189660;28;20106;-89
2023/02/25 08:07:42;;;;;;;22.95;14.48;;;9.50;99.90;;;;;;4189242;28;20064;-89
2023/02/25 08:10:02;;;;;;;25.35;14.57;;;9.60;99.90;;;;;;4189627;28;20297;-90
2023/02/25 08:12:23;;;;;;;13.90;12.38;;;9.60;99.90;;;;;;4211295;28;20530;-89
2023/02/25 08:14:44;;;;;;;21.00;14.40;;;9.60;99.90;;;;;;4189669;28;20044;-89
2023/02/25 08:17:04;;;;;;;15.80;12.75;;;9.60;99.90;;;;;;4182222;28;20044;-90
2023/02/25 08:19:24;;;;;;;16.45;13.70;;;9.70;99.90;;;;;;4201809;28;20091;-89
2023/02/25 08:21:45;;;;;;;17.55;12.70;;;9.70;99.90;;;;;;4192335;28;20052;-89
2023/02/25 08:24:05;;;;;;;19.60;13.25;;;9.70;99.90;;;;;;4195198;28;20052;-89
2023/02/25 08:26:26;;;;;;;22.63;14.40;;;9.70;99.90;;;;;;4194581;28;20055;-89
2023/02/25 08:28:46;;;;;;;25.50;20.73;;;9.70;99.90;;;;;;4193688;28;20127;-89
2023/02/25 08:31:10;;;;;;;19.75;17.77;;;9.70;99.90;;;;;;4198406;28;20136;-89
2023/02/25 08:33:29;;;;;;;15.18;13.95;;;9.60;99.90;;;;;;4184895;28;20405;-89
2023/02/25 08:35:50;;;;;;;18.38;16.52;;;9.50;99.90;;;;;;4197894;28;20083;-89
2023/02/25 08:38:11;;;;;;;18.60;16.77;;;9.50;99.90;;;;;;4197920;28;20263;-89
2023/02/25 08:40:31;;;;;;;18.45;15.10;;;9.40;99.90;;;;;;4204367;28;20392;-90
2023/02/25 08:42:51;;;;;;;22.27;16.08;;;9.40;99.90;;;;;;4188940;28;20043;-89
2023/02/25 08:45:11;;;;;;;17.00;15.20;;;9.40;99.90;;;;;;4190402;28;20043;-90
2023/02/25 08:47:32;;;;;;;17.67;15.93;;;9.50;99.90;;;;;;4198731;28;20074;-89
2023/02/25 08:49:52;;;;;;;18.88;14.07;;;9.40;99.90;;;;;;4191766;28;20121;-90
2023/02/25 08:52:13;;;;;;;15.88;14.35;;;9.40;99.90;;;;;;4191474;28;20086;-89
2023/02/25 08:54:33;;;;;;;14.68;13.23;;;9.40;99.90;;;;;;4196142;28;20056;-80
2023/02/25 08:56:56;;;;;;;15.68;14.20;;;9.50;99.90;;;;;;4189109;28;20244;-80
2023/02/25 08:59:16;;;;;;;16.10;14.70;;;9.50;99.90;;;;;;4192575;28;20130;-80
2023/02/25 09:01:47;;;;;;;17.80;14.63;;;9.60;99.90;;;;;;4204371;28;20089;-80
2023/02/25 09:04:07;;;;;;;15.18;12.48;;;9.60;99.90;;;;;;4188302;28;20103;-80
2023/02/25 09:06:27;;;;;;;15.23;13.38;;;9.50;99.90;;;;;;4188617;28;20353;-79
2023/02/25 09:08:47;;;;;;;17.50;13.80;;;9.50;99.90;;;;;;4195361;28;20044;-80
2023/02/25 09:11:07;;;;;;;15.23;14.05;;;9.60;99.90;;;;;;4191141;28;20090;-80
2023/02/25 09:13:27;;;;;;;21.23;17.30;;;9.70;99.90;;;;;;4192410;28;20052;-80
2023/02/25 09:16:01;;;;;;;44.13;27.73;;;9.80;99.90;;;;;;4192414;28;20044;-80
2023/02/25 09:18:21;;;;;;;28.10;19.15;;;9.90;99.90;;;;;;4191533;28;20427;-80
2023/02/25 09:20:41;;;;;;;24.50;15.88;;;10.00;99.90;;;;;;4193970;28;20039;-80
2023/02/25 09:23:01;;;;;;;23.92;13.18;;;10.00;99.90;;;;;;4196007;28;20051;-80
2023/02/25 09:25:21;;;;;;;16.00;14.32;;;10.00;99.90;;;;;;4190506;28;20099;-81
2023/02/25 09:27:41;;;;;;;18.05;14.13;;;10.10;99.90;;;;;;4190541;28;20076;-80
2023/02/25 09:30:00;;;;;;;21.35;14.57;;;10.10;99.90;;;;;;4197998;28;20044;-80
2023/02/25 09:32:21;;;;;;;16.83;14.50;;;10.10;99.90;;;;;;4192927;28;20101;-80
2023/02/25 09:34:41;;;;;;;19.73;14.30;;;10.10;99.90;;;;;;4191148;28;20071;-80
2023/02/25 09:37:04;;;;;;;18.17;13.43;;;10.10;99.90;;;;;;4195230;28;20052;-80
2023/02/25 09:39:24;;;;;;;17.27;14.32;;;10.20;99.90;;;;;;4191660;28;20048;-80
2023/02/25 09:41:44;;;;;;;18.15;13.27;;;10.20;99.90;;;;;;4195607;28;20351;-80
2023/02/25 09:44:18;;;;;;;27.63;24.63;;;10.20;99.90;;;;;;4196733;28;20094;-80
2023/02/25 09:47:02;;;;;;;16.27;14.57;;;10.30;99.90;;;;;;4193971;28;20071;-80
2023/02/25 09:49:41;;;;;;;14.50;13.18;;;10.30;99.90;;;;;;4191340;28;20098;-80
2023/02/25 09:52:10;;;;;;;13.88;12.57;;;10.30;99.90;;;;;;4207214;28;20047;-80
2023/02/25 09:54:39;;;;;;;14.32;12.63;;;10.40;99.90;;;;;;4194006;28;20039;-80
2023/02/25 09:57:02;;;;;;;15.48;13.25;;;10.40;99.90;;;;;;4190370;28;20070;-80
2023/02/25 09:59:23;;;;;;;22.10;14.27;;;10.50;99.90;;;;;;4200600;28;20067;-80
2023/02/25 10:01:59;;;;;;;12.82;11.90;;;10.50;99.90;;;;;;4197529;28;20071;-80
2023/02/25 10:04:46;;;;;;;13.85;12.63;;;10.50;99.90;;;;;;4184178;28;20451;-80
2023/02/25 10:07:25;;;;;;;13.43;12.38;;;10.50;99.90;;;;;;4188283;28;20074;-80
2023/02/25 10:09:45;;;;;;;15.30;12.75;;;10.40;99.90;;;;;;4193046;28;20248;-80
2023/02/25 10:12:19;;;;;;;15.85;14.00;;;10.30;99.90;;;;;;4188833;28;20052;-81
2023/02/25 10:15:14;;;;;;;13.13;12.18;;;10.30;99.90;;;;;;4189802;28;20052;-80
2023/02/25 10:18:14;;;;;;;17.85;13.82;;;10.30;99.90;;;;;;4193008;28;20051;-80
2023/02/25 10:20:56;;;;;;;15.13;13.85;;;10.30;99.90;;;;;;4192500;28;20076;-80
2023/02/25 10:23:40;;;;;;;24.88;14.52;;;10.20;99.90;;;;;;4197013;28;20147;-80
2023/02/25 10:26:21;;;;;;;15.25;13.95;;;10.10;99.90;;;;;;4193204;28;20043;-80
2023/02/25 10:28:44;;;;;;;17.52;15.60;;;10.10;99.90;;;;;;4193563;28;20040;-81
2023/02/25 10:31:20;;;;;;;17.95;16.15;;;10.10;99.90;;;;;;4197641;28;20366;-80
2023/02/25 10:33:44;;;;;;;17.98;16.17;;;10.10;99.90;;;;;;4191691;28;20290;-80
2023/02/25 10:36:15;;;;;;;19.42;16.60;;;10.10;99.90;;;;;;4194338;28;20048;-80
2023/02/25 10:38:38;;;;;;;16.40;15.05;;;10.00;99.90;;;;;;4193880;28;20040;-80
2023/02/25 10:40:58;;;;;;;;;;;10.00;99.90;;;;;;4186023;28;20144;-80
2023/02/25 10:43:20;;;;;;;17.88;16.23;;;9.90;99.90;;;;;;4194071;28;19942;-80
2023/02/25 10:45:44;;;;;;;;;;;9.90;99.90;;;;;;4196381;28;20047;-80
2023/02/25 10:48:17;;;;;;;22.83;17.48;;;9.90;99.90;;;;;;4185184;28;19924;-80
2023/02/25 10:50:38;;;;;;;16.55;14.88;;;9.90;99.90;;;;;;4191524;28;20362;-80
2023/02/25 10:53:25;;;;;;;19.98;15.93;;;9.90;99.90;;;;;;4201011;28;20079;-80
2023/02/25 10:55:53;;;;;;;22.92;17.48;;;9.80;99.90;;;;;;4186396;28;20070;-80
2023/02/25 10:58:31;;;;;;;20.40;18.30;;;9.80;99.90;;;;;;4193982;28;20040;-80
2023/02/25 11:01:03;;;;;;;19.83;17.80;;;9.70;99.90;;;;;;4191711;28;20070;-80
2023/02/25 11:03:25;;;;;;;18.05;16.55;;;9.70;99.90;;;;;;4187053;28;20789;-80
2023/02/25 11:05:44;;;;;;;19.88;16.73;;;9.70;99.90;;;;;;4196268;28;20052;-80
2023/02/25 11:08:24;;;;;;;19.77;17.80;;;9.80;99.90;;;;;;4191446;28;20478;-81
2023/02/25 11:11:17;;;;;;;21.88;17.63;;;9.70;99.90;;;;;;4194137;28;20043;-80
2023/02/25 11:13:37;;;;;;;19.55;17.20;;;9.70;99.90;;;;;;4189423;28;20056;-80
2023/02/25 11:16:03;;;;;;;20.88;18.63;;;9.70;99.90;;;;;;4192723;28;20122;-80
2023/02/25 11:18:29;;;;;;;20.05;17.92;;;9.60;99.90;;;;;;4174380;28;20072;-86
2023/02/25 11:20:54;;;;;;;21.70;19.50;;;9.60;99.90;;;;;;4189711;28;20075;-86
2023/02/25 11:23:21;;;;;;;27.08;19.42;;;9.60;99.90;;;;;;4196633;28;20365;-85
2023/02/25 11:25:42;;;;;;;23.27;20.98;;;9.50;99.90;;;;;;4185061;28;20048;-85
2023/02/25 11:28:03;;;;;;;24.00;21.88;;;9.40;99.90;;;;;;4190188;28;20043;-85
2023/02/25 11:30:43;;;;;;;24.63;21.38;;;9.50;99.90;;;;;;4181271;28;20367;-85
2023/02/25 11:33:17;;;;;;;23.15;20.77;;;9.50;99.90;;;;;;4189452;28;20052;-85
2023/02/25 11:35:38;;;;;;;24.17;21.48;;;9.50;99.90;;;;;;4203604;28;20239;-85
2023/02/25 11:38:21;;;;;;;25.92;23.45;;;9.50;99.90;;;;;;4185969;28;20056;-85
2023/02/25 11:40:44;;;;;;;25.17;22.70;;;9.50;99.90;;;;;;4176696;28;20070;-85
2023/02/25 11:43:04;;;;;;;26.52;23.98;;;9.50;99.90;;;;;;4195072;28;20051;-86
2023/02/25 11:45:25;;;;;;;28.55;25.65;;;9.50;99.90;;;;;;4180002;28;20047;-86
2023/02/25 11:47:48;;;;;;;31.40;24.75;;;9.50;99.90;;;;;;4199075;28;20164;-86
2023/02/25 11:50:24;;;;;;;29.10;24.77;;;9.50;99.90;;;;;;4191542;28;20389;-86
2023/02/25 11:53:07;;;;;;;27.80;24.98;;;9.50;99.90;;;;;;4190963;28;20093;-84
2023/02/25 11:55:39;;;;;;;28.38;23.23;;;9.60;99.90;;;;;;4192500;28;20048;-84
2023/02/25 11:58:01;;;;;;;29.50;22.90;;;9.60;99.90;;;;;;4196443;28;20087;-84
2023/02/25 12:00:34;;;;;;;29.07;25.83;;;9.60;99.90;;;;;;4191187;28;20060;-84
2023/02/25 12:03:17;;;;;;;29.90;25.13;;;9.50;99.90;;;;;;4193061;28;20406;-84
2023/02/25 12:05:51;;;;;;;;;;;9.50;99.90;;;;;;4202214;28;20090;-84
2023/02/25 12:08:22;;;;;;;28.75;23.85;;;9.50;99.90;;;;;;4181931;28;19923;-84
2023/02/25 12:11:07;;;;;;;28.13;25.40;;;9.50;99.90;;;;;;4200780;28;20063;-84
2023/02/25 12:13:40;;;;;;;29.00;24.70;;;9.50;99.90;;;;;;4188870;28;20052;-85
2023/02/25 12:16:09;;;;;;;;;;;9.50;99.90;;;;;;4186403;28;20044;-84
2023/02/25 12:18:51;;;;;;;26.65;23.95;;;9.60;99.90;;;;;;4178999;28;19991;-84
2023/02/25 12:21:29;;;;;;;27.38;24.63;;;9.70;99.90;;;;;;4177175;28;20299;-84
2023/02/25 12:24:01;;;;;;;29.98;24.20;;;9.70;99.90;;;;;;4204783;28;20055;-84
2023/02/25 12:26:21;;;;;;;29.88;21.67;;;9.70;99.90;;;;;;4184250;28;20060;-84